Time;durP1;ratioP1;P1;durP2;ratioP2;P2;SDS_P1;SDS_P2;PMS_P1;PMS_P2;Temp;Humidity;BMP_temperature;BMP_pressure;BME280_temperature;BME280_humidity;BME280_pressure;Samples;Min_cycle;Max_cycle;Signal;HPM_P1;HPM_P2
2023/04/25 00:00:25;;;;;;;30.30;10.70;;;;;;;9.28;100.00;99915.02;106667;1278;22555;-71
2023/04/25 00:02:52;;;;;;;21.80;9.10;;;;;;;9.24;100.00;99918.92;106663;1278;24390;-70
2023/04/25 00:05:20;;;;;;;23.40;8.90;;;;;;;9.19;100.00;99922.69;106665;1256;25663;-70
2023/04/25 00:07:47;;;;;;;26.70;10.60;;;;;;;9.14;100.00;99926.59;106732;1278;24381;-70
2023/04/25 00:10:15;;;;;;;21.10;9.30;;;;;;;9.11;100.00;99933.77;106689;1278;22715;-71
2023/04/25 00:12:42;;;;;;;22.90;9.40;;;;;;;9.08;100.00;99935.84;106663;1278;24272;-71
2023/04/25 00:15:10;;;;;;;20.40;8.90;;;;;;;9.04;100.00;99933.74;106590;1278;25379;-71
2023/04/25 00:17:38;;;;;;;26.20;9.70;;;;;;;9.01;100.00;99938.31;106745;1278;22527;-71
2023/04/25 00:20:09;;;;;;;22.10;9.30;;;;;;;8.94;100.00;99938.40;106705;1278;24402;-70
2023/04/25 00:22:39;;;;;;;20.90;9.40;;;;;;;8.89;100.00;99940.26;106686;1278;22527;-70
2023/04/25 00:25:07;;;;;;;16.50;7.60;;;;;;;8.83;100.00;99937.65;106662;1278;24447;-71
2023/04/25 00:27:34;;;;;;;15.30;7.10;;;;;;;8.78;100.00;99941.10;106694;1278;24218;-71
2023/04/25 00:30:02;;;;;;;16.20;6.90;;;;;;;8.72;100.00;99943.42;106713;1278;24399;-70
2023/04/25 00:32:29;;;;;;;13.40;6.30;;;;;;;8.67;100.00;99946.34;106724;1278;23000;-71
2023/04/25 00:34:57;;;;;;;13.80;6.40;;;;;;;8.63;100.00;99945.17;106644;1278;22527;-71
2023/04/25 00:37:25;;;;;;;12.80;5.80;;;;;;;8.60;100.00;99943.67;106664;1278;23544;-70
2023/04/25 00:39:54;;;;;;;13.80;5.80;;;;;;;8.59;100.00;99940.30;106623;1278;22528;-70
2023/04/25 00:42:22;;;;;;;13.90;5.50;;;;;;;8.58;100.00;99937.23;106719;1278;24400;-69
2023/04/25 00:44:49;;;;;;;8.70;5.10;;;;;;;8.55;100.00;99932.98;106599;1278;24083;-69
2023/04/25 00:47:17;;;;;;;14.10;5.70;;;;;;;8.53;100.00;99928.55;106537;1278;22651;-69
2023/04/25 00:49:44;;;;;;;15.50;5.80;;;;;;;8.52;100.00;99921.48;106277;1278;22530;-69
2023/04/25 00:52:12;;;;;;;14.70;5.60;;;;;;;8.50;100.00;99916.81;106388;1278;23953;-69
2023/04/25 00:54:39;;;;;;;11.90;4.80;;;;;;;8.47;100.00;99911.59;106490;1278;22525;-69
2023/04/25 00:57:06;;;;;;;12.70;5.20;;;;;;;8.43;100.00;99909.12;106647;1278;22555;-69
2023/04/25 00:59:34;;;;;;;12.00;5.00;;;;;;;8.39;100.00;99904.08;106665;1278;24240;-69
2023/04/25 01:02:01;;;;;;;12.00;6.50;;;;;;;8.35;100.00;99903.05;106588;1278;22615;-70
2023/04/25 01:04:28;;;;;;;13.90;6.40;;;;;;;8.32;100.00;99895.13;106653;1278;22530;-69
2023/04/25 01:06:56;;;;;;;15.00;6.70;;;;;;;8.29;100.00;99888.48;106670;1278;24551;-70
2023/04/25 01:09:24;;;;;;;17.40;7.00;;;;;;;8.29;100.00;99884.46;106694;1278;24224;-70
2023/04/25 01:11:51;;;;;;;16.80;6.30;;;;;;;8.29;100.00;99878.20;106723;1278;22659;-69
2023/04/25 01:14:18;;;;;;;10.90;5.50;;;;;;;8.27;100.00;99871.96;106671;1278;22543;-69
2023/04/25 01:16:46;;;;;;;13.70;6.20;;;;;;;8.26;100.00;99867.08;106701;1278;24301;-69
2023/04/25 01:19:13;;;;;;;12.20;5.60;;;;;;;8.24;100.00;99861.30;106678;1278;24376;-69
2023/04/25 01:21:40;;;;;;;13.40;5.60;;;;;;;8.23;100.00;99854.05;106659;1278;23230;-69
2023/04/25 01:24:08;;;;;;;9.50;5.30;;;;;;;8.22;100.00;99853.28;106610;1278;22528;-69
2023/04/25 01:26:35;;;;;;;12.10;6.80;;;;;;;8.20;100.00;99852.02;106632;1277;22659;-70
2023/04/25 01:29:04;;;;;;;13.10;8.20;;;;;;;8.20;100.00;99850.61;106682;1277;22524;-69
2023/04/25 01:31:32;;;;;;;15.00;8.90;;;;;;;8.20;100.00;99853.27;106745;1277;25380;-69
2023/04/25 01:34:00;;;;;;;14.20;9.40;;;;;;;8.21;100.00;99900.60;106707;1278;22527;-69
2023/04/25 01:36:28;;;;;;;16.90;10.30;;;;;;;8.20;100.00;99904.30;106688;1278;22528;-69
2023/04/25 01:38:56;;;;;;;16.90;10.60;;;;;;;8.18;100.00;99898.17;106699;1278;22690;-70
2023/04/25 01:41:23;;;;;;;16.50;9.70;;;;;;;8.16;100.00;99892.84;106728;1278;22632;-70
2023/04/25 01:43:50;;;;;;;15.60;9.20;;;;;;;8.14;100.00;99888.92;106685;1278;22563;-69
2023/04/25 01:46:18;;;;;;;15.80;9.40;;;;;;;8.12;100.00;99881.41;106682;1278;22534;-70
2023/04/25 01:48:46;;;;;;;15.90;9.10;;;;;;;8.10;100.00;99877.52;106689;1278;24320;-71
2023/04/25 01:51:15;;;;;;;16.50;9.20;;;;;;;8.07;100.00;99870.08;106686;1278;25249;-71
2023/04/25 01:53:42;;;;;;;15.60;9.20;;;;;;;8.05;100.00;99864.93;106733;1278;22527;-68
2023/04/25 01:56:10;;;;;;;12.60;8.10;;;;;;;8.03;100.00;99854.05;107733;1277;22531;-69
2023/04/25 01:58:38;;;;;;;12.90;7.50;;;;;;;8.04;100.00;99848.36;108281;1278;22469;-69
2023/04/25 02:01:44;;;;;;;12.70;7.50;;;;;;;8.05;100.00;99834.27;106848;1285;24308;-70
2023/04/25 02:04:16;;;;;;;10.60;6.40;;;;;;;8.05;100.00;99828.61;106628;1278;22517;-70
2023/04/25 02:06:44;;;;;;;14.70;6.10;;;;;;;8.06;100.00;99825.09;106696;1278;22542;-70
2023/04/25 02:09:11;;;;;;;10.30;5.90;;;;;;;8.07;100.00;99815.84;106656;1278;25892;-70
2023/04/25 02:11:44;;;;;;;9.90;5.60;;;;;;;8.08;100.00;99804.80;106707;1278;22743;-70
2023/04/25 02:14:33;;;;;;;10.50;5.10;;;;;;;8.08;100.00;99795.44;106665;1278;22538;-69
2023/04/25 02:17:12;;;;;;;9.00;5.40;;;;;;;8.09;100.00;99784.95;106675;1278;22534;-69
2023/04/25 02:19:40;;;;;;;11.20;5.20;;;;;;;8.08;100.00;99773.70;106676;1278;22534;-69
2023/04/25 02:22:07;;;;;;;10.30;5.10;;;;;;;8.08;100.00;99771.80;106673;1277;24237;-70
2023/04/25 02:24:34;;;;;;;18.10;5.30;;;;;;;8.08;100.00;99765.31;106717;1278;24390;-70
2023/04/25 02:27:02;;;;;;;16.00;5.70;;;;;;;8.10;100.00;99760.46;106661;1278;22527;-69
2023/04/25 02:29:30;;;;;;;11.80;4.90;;;;;;;8.10;100.00;99752.13;106688;1278;22600;-69
2023/04/25 02:31:57;;;;;;;8.40;4.70;;;;;;;8.09;100.00;99748.46;106675;1278;22636;-69
2023/04/25 02:34:25;;;;;;;6.80;4.60;;;;;;;8.07;100.00;99740.42;106774;1278;22559;-69
2023/04/25 02:36:52;;;;;;;9.50;4.60;;;;;;;8.07;100.00;99736.13;106685;1278;24231;-69
2023/04/25 02:39:21;;;;;;;9.60;5.10;;;;;;;8.09;100.00;99733.11;106705;1278;24405;-70
2023/04/25 02:41:49;;;;;;;7.90;4.70;;;;;;;8.10;100.00;99730.08;106691;1278;24400;-70
2023/04/25 02:44:16;;;;;;;9.30;4.60;;;;;;;8.11;100.00;99728.90;106699;1278;23872;-70
2023/04/25 02:46:44;;;;;;;11.20;4.60;;;;;;;8.11;100.00;99726.89;106544;1278;24399;-70
2023/04/25 02:49:11;;;;;;;11.50;4.70;;;;;;;8.11;100.00;99723.15;106405;1278;23115;-70
2023/04/25 02:51:38;;;;;;;10.20;4.70;;;;;;;8.10;100.00;99720.39;106256;1278;22761;-70
2023/04/25 02:54:06;;;;;;;8.40;4.60;;;;;;;8.11;100.00;99720.99;106452;1278;24439;-70
2023/04/25 02:56:36;;;;;;;9.10;4.70;;;;;;;8.14;100.00;99718.48;106663;1278;22536;-70
2023/04/25 02:59:05;;;;;;;7.80;4.60;;;;;;;8.18;100.00;99721.36;106706;1278;22530;-70
2023/04/25 03:01:33;;;;;;;8.70;5.00;;;;;;;8.21;100.00;99715.27;106929;1275;22538;-70
2023/04/25 03:04:00;;;;;;;12.30;4.90;;;;;;;8.26;100.00;99713.50;106945;1275;24339;-70
2023/04/25 03:06:28;;;;;;;12.60;5.20;;;;;;;8.30;100.00;99706.48;106756;1275;22637;-70
2023/04/25 03:08:55;;;;;;;9.70;4.40;;;;;;;8.33;100.00;99704.29;106951;1275;22590;-70
2023/04/25 03:11:25;;;;;;;8.90;4.70;;;;;;;8.38;100.00;99701.13;106764;1275;24347;-70
2023/04/25 03:13:52;;;;;;;10.90;4.70;;;;;;;8.42;100.00;99706.78;106927;1275;25435;-70
2023/04/25 03:16:20;;;;;;;10.80;4.70;;;;;;;8.45;100.00;99705.69;106987;1275;22530;-70
2023/04/25 03:18:47;;;;;;;11.90;4.60;;;;;;;8.48;100.00;99705.06;106955;1275;24329;-70
2023/04/25 03:21:15;;;;;;;7.80;4.80;;;;;;;8.50;100.00;99703.96;107037;1275;22523;-70
2023/04/25 03:23:42;;;;;;;12.00;6.00;;;;;;;8.54;100.00;99700.86;106790;1275;22523;-70
2023/04/25 03:26:10;;;;;;;11.80;5.80;;;;;;;8.57;100.00;99702.34;106866;1275;22526;-70
2023/04/25 03:28:37;;;;;;;9.40;5.40;;;;;;;8.60;100.00;99703.02;106969;1275;22523;-70
2023/04/25 03:31:06;;;;;;;14.00;6.10;;;;;;;8.64;100.00;99705.49;106978;1275;22521;-72
2023/04/25 03:33:55;;;;;;;12.30;5.50;;;;;;;8.69;100.00;99703.16;106933;1275;22614;-72
2023/04/25 03:36:22;;;;;;;14.30;5.60;;;;;;;8.76;100.00;99700.41;107015;1275;22646;-69
2023/04/25 03:38:50;;;;;;;13.30;5.90;;;;;;;8.82;100.00;99696.34;106773;1275;25355;-70
2023/04/25 03:41:18;;;;;;;10.50;5.40;;;;;;;8.87;100.00;99695.73;107101;1275;22526;-70
2023/04/25 03:43:50;;;;;;;14.30;5.90;;;;;;;8.94;100.00;99694.17;106933;1275;22526;-71
2023/04/25 03:46:17;;;;;;;14.10;5.40;;;;;;;8.99;100.00;99692.66;106799;1275;25297;-70
2023/04/25 03:48:46;;;;;;;12.80;6.00;;;;;;;9.06;100.00;99695.70;106777;1275;22639;-70
2023/04/25 03:51:19;;;;;;;15.30;6.80;;;;;;;9.14;100.00;99692.48;106733;1275;25329;-70
2023/04/25 03:53:47;;;;;;;14.10;6.60;;;;;;;9.20;100.00;99693.41;106856;1275;22516;-71
2023/04/25 03:56:15;;;;;;;17.00;7.60;;;;;;;9.26;100.00;99696.34;106850;1263;24227;-70
2023/04/25 03:58:44;;;;;;;18.90;8.00;;;;;;;9.32;100.00;99694.95;106759;1275;22596;-70
2023/04/25 04:01:12;;;;;;;15.80;6.50;;;;;;;9.38;100.00;99693.27;106781;1275;22528;-70
2023/04/25 04:03:45;;;;;;;15.30;5.70;;;;;;;9.43;100.00;99699.66;106813;1275;22523;-71
2023/04/25 04:06:13;;;;;;;10.90;5.10;;;;;;;9.49;100.00;99699.53;106813;1275;22563;-71
2023/04/25 04:08:44;;;;;;;13.10;5.80;;;;;;;9.56;100.00;99699.39;106915;1275;22524;-71
2023/04/25 04:11:11;;;;;;;14.40;6.70;;;;;;;9.63;100.00;99696.40;106788;1275;22530;-71
2023/04/25 04:13:38;;;;;;;20.00;8.80;;;;;;;9.73;100.00;99696.73;106940;1275;22537;-71
2023/04/25 04:16:06;;;;;;;18.70;7.90;;;;;;;9.83;100.00;99694.57;107003;1275;22522;-71
2023/04/25 04:18:34;;;;;;;14.40;6.90;;;;;;;9.94;100.00;99693.55;106948;1275;22532;-71
2023/04/25 04:21:01;;;;;;;14.10;5.70;;;;;;;10.05;100.00;99693.23;107013;1275;24218;-69
2023/04/25 04:23:32;;;;;;;13.60;6.40;;;;;;;10.14;100.00;99688.59;106955;1275;22527;-71
2023/04/25 04:25:59;;;;;;;18.10;6.60;;;;;;;10.22;100.00;99689.59;106766;1275;22527;-69
2023/04/25 04:28:27;;;;;;;17.50;6.00;;;;;;;10.31;100.00;99697.30;106742;1275;24416;-69
2023/04/25 04:31:09;;;;;;;18.40;7.10;;;;;;;10.39;100.00;99695.31;107006;1275;22519;-70
2023/04/25 04:33:37;;;;;;;14.00;6.30;;;;;;;10.44;100.00;99699.87;106773;1275;25297;-70
2023/04/25 04:36:07;;;;;;;9.40;4.90;;;;;;;10.49;100.00;99697.41;106974;1275;22533;-70
2023/04/25 04:38:34;;;;;;;10.70;4.90;;;;;;;10.55;100.00;99702.27;106816;1275;26543;-70
2023/04/25 04:41:03;;;;;;;11.10;4.80;;;;;;;10.61;100.00;99705.52;106988;1275;22538;-70
2023/04/25 04:43:55;;;;;;;11.90;5.10;;;;;;;10.70;100.00;99706.86;107018;1275;22513;-70
2023/04/25 04:46:44;;;;;;;11.30;4.90;;;;;;;10.80;100.00;99713.05;106990;1275;22938;-70
2023/04/25 04:49:26;;;;;;;9.30;5.30;;;;;;;10.89;100.00;99716.33;107037;1275;22538;-70
2023/04/25 04:52:07;;;;;;;10.10;5.00;;;;;;;10.97;100.00;99714.71;107035;1275;22526;-70
2023/04/25 04:55:01;;;;;;;10.80;4.70;;;;;;;11.04;100.00;99720.01;107018;1275;22635;-70
2023/04/25 04:58:00;;;;;;;12.10;5.00;;;;;;;11.13;100.00;99721.23;106857;1275;22524;-70
2023/04/25 05:00:57;;;;;;;10.40;4.80;;;;;;;11.22;100.00;99720.74;106935;1275;22517;-71
2023/04/25 05:03:54;;;;;;;13.10;6.20;;;;;;;11.30;100.00;99721.88;106877;1275;25814;-70
2023/04/25 05:06:42;;;;;;;14.10;7.30;;;;;;;11.32;100.00;99723.69;107000;1275;22510;-70
2023/04/25 05:09:48;;;;;;;12.10;6.80;;;;;;;11.34;100.00;99721.20;106785;1275;24416;-68
2023/04/25 05:12:34;;;;;;;11.70;7.50;;;;;;;11.39;100.00;99723.70;107027;1275;24225;-71
2023/04/25 05:15:12;;;;;;;11.70;7.00;;;;;;;11.46;100.00;99721.60;106956;1275;23381;-71
2023/04/25 05:17:58;;;;;;;32.40;18.40;;;;;;;11.54;100.00;99721.63;106849;1275;22523;-71
2023/04/25 05:20:53;;;;;;;23.70;10.50;;;;;;;11.62;100.00;99720.48;106710;1275;23855;-70
2023/04/25 05:23:43;;;;;;;10.70;6.70;;;;;;;11.67;100.00;99721.82;106596;1275;24018;-70
2023/04/25 05:26:23;;;;;;;11.40;6.80;;;;;;;11.70;100.00;99725.95;106846;1275;22533;-70
2023/04/25 05:29:14;;;;;;;15.10;6.90;;;;;;;11.75;100.00;99725.73;106877;1275;25651;-71
2023/04/25 05:31:58;;;;;;;12.60;7.20;;;;;;;11.76;100.00;99732.65;106852;1275;22731;-70
2023/04/25 05:34:26;;;;;;;18.80;7.40;;;;;;;11.77;100.00;99734.98;106919;1274;25489;-69
2023/04/25 05:36:56;;;;;;;18.30;8.20;;;;;;;11.83;100.00;99732.55;106843;1275;22763;-70
2023/04/25 05:39:24;;;;;;;14.40;8.00;;;;;;;11.91;100.00;99736.41;106880;1275;22533;-70
2023/04/25 05:42:10;;;;;;;21.80;8.30;;;;;;;12.00;100.00;99733.70;107074;1267;25427;-69
2023/04/25 05:44:49;;;;;;;149.90;79.00;;;;;;;12.08;100.00;99735.09;106963;1275;22523;-69
2023/04/25 05:47:26;;;;;;;49.70;29.30;;;;;;;12.14;100.00;99740.92;106905;1275;22530;-69
2023/04/25 05:50:08;;;;;;;50.90;31.30;;;;;;;12.22;100.00;99740.35;107126;1275;25593;-69
2023/04/25 05:52:54;;;;;;;21.00;10.50;;;;;;;12.30;100.00;99744.68;107064;1275;25130;-72
2023/04/25 05:55:29;;;;;;;20.40;8.90;;;;;;;12.35;100.00;99747.15;106980;1274;22560;-72
2023/04/25 05:57:58;;;;;;;14.70;7.60;;;;;;;12.39;100.00;99752.16;106941;1275;25274;-71
2023/04/25 06:00:26;;;;;;;17.00;7.80;;;;;;;12.43;100.00;99753.39;107245;1275;22520;-69
2023/04/25 06:02:54;;;;;;;15.50;6.80;;;;;;;12.45;100.00;99755.36;106546;1275;22563;-69
2023/04/25 06:05:22;;;;;;;13.00;7.50;;;;;;;12.44;100.00;99759.31;106876;1275;25382;-68
2023/04/25 06:07:50;;;;;;;341.60;186.30;;;;;;;12.45;100.00;99764.91;106689;1275;24712;-67
2023/04/25 06:10:18;;;;;;;77.80;48.10;;;;;;;12.47;100.00;99769.54;106833;1275;24439;-69
2023/04/25 06:12:45;;;;;;;25.50;14.70;;;;;;;12.54;100.00;99770.66;107181;1275;24231;-69
2023/04/25 06:15:15;;;;;;;18.90;9.50;;;;;;;12.62;100.00;99772.21;107047;1275;22517;-69
2023/04/25 06:17:50;;;;;;;14.40;7.60;;;;;;;12.69;100.00;99773.55;107042;1275;22764;-70
2023/04/25 06:20:17;;;;;;;15.50;7.40;;;;;;;12.75;100.00;99778.16;106891;1275;22518;-69
2023/04/25 06:22:45;;;;;;;15.00;6.60;;;;;;;12.82;100.00;99778.81;107065;1272;25528;-65
2023/04/25 06:25:12;;;;;;;15.20;7.00;;;;;;;12.88;100.00;99785.89;106754;1272;22517;-66
2023/04/25 06:27:39;;;;;;;19.00;6.80;;;;;;;12.94;100.00;99787.98;106497;1267;23483;-67
2023/04/25 06:30:08;;;;;;;17.50;6.60;;;;;;;13.01;100.00;99791.80;106663;1274;24242;-66
2023/04/25 06:32:39;;;;;;;19.60;9.00;;;;;;;13.10;100.00;99793.14;106570;1274;24822;-66
2023/04/25 06:35:07;;;;;;;18.50;7.70;;;;;;;13.21;100.00;99795.38;106649;1269;25347;-66
2023/04/25 06:37:34;;;;;;;14.30;7.20;;;;;;;13.30;100.00;99798.45;106819;1270;22753;-66
2023/04/25 06:40:03;;;;;;;20.40;8.40;;;;;;;13.36;100.00;99795.84;106612;1272;22534;-68
2023/04/25 06:42:30;;;;;;;27.20;10.60;;;;;;;13.50;100.00;99797.05;107296;1253;22518;-68
2023/04/25 06:44:59;;;;;;;36.70;14.20;;;;;;;13.67;100.00;99797.86;107151;1274;22532;-66
2023/04/25 06:47:27;;;;;;;46.40;18.40;;;;;;;13.86;100.00;99799.84;106859;1269;22523;-70
2023/04/25 06:49:55;;;;;;;43.20;19.00;;;;;;;14.00;100.00;99802.52;106779;1272;24285;-70
2023/04/25 06:52:23;;;;;;;30.70;14.40;;;;;;;14.20;100.00;99812.17;107008;1267;22877;-71
2023/04/25 06:54:51;;;;;;;110.50;73.30;;;;;;;14.42;100.00;99813.55;107187;1267;26576;-70
2023/04/25 06:57:32;;;;;;;50.50;29.00;;;;;;;14.69;100.00;99816.29;108073;1272;22773;-68
2023/04/25 07:00:11;;;;;;;30.00;13.60;;;;;;;14.92;100.00;99825.96;108197;1267;22696;-68
2023/04/25 07:02:38;;;;;;;23.50;10.40;;;;;;;15.10;100.00;99837.20;107437;1269;23938;-67
2023/04/25 07:05:07;;;;;;;27.60;11.90;;;;;;;15.25;100.00;99853.41;106758;1270;22516;-68
2023/04/25 07:07:34;;;;;;;34.00;17.00;;;;;;;15.27;100.00;99887.69;106805;1270;22632;-68
2023/04/25 07:10:02;;;;;;;28.60;13.30;;;;;;;15.20;100.00;99908.96;106893;1267;22526;-69
2023/04/25 07:12:30;;;;;;;31.10;14.10;;;;;;;15.18;100.00;99927.46;106642;1269;24513;-67
2023/04/25 07:14:57;;;;;;;37.00;14.50;;;;;;;15.23;100.00;99939.27;106844;1270;22600;-69
2023/04/25 07:17:24;;;;;;;29.50;15.70;;;;;;;15.29;100.00;99949.85;106715;1269;24308;-69
2023/04/25 07:19:52;;;;;;;47.90;24.90;;;;;;;15.35;100.00;99956.56;106691;1267;24225;-69
2023/04/25 07:22:19;;;;;;;27.50;12.70;;;;;;;15.43;100.00;99962.80;106618;1274;22528;-67
2023/04/25 07:24:48;;;;;;;45.10;16.30;;;;;;;15.46;100.00;99973.46;106615;1275;25258;-67
2023/04/25 07:27:17;;;;;;;31.50;12.60;;;;;;;15.49;100.00;99986.34;107175;1268;22928;-66
2023/04/25 07:29:57;;;;;;;26.00;10.60;;;;;;;15.58;100.00;99997.64;106678;1273;24267;-66
2023/04/25 07:32:25;;;;;;;25.70;11.30;;;;;;;15.66;100.00;100004.05;107068;1275;22592;-67
2023/04/25 07:34:53;;;;;;;29.80;12.30;;;;;;;15.72;100.00;100007.75;106990;1276;25351;-69
2023/04/25 07:37:22;;;;;;;26.30;10.90;;;;;;;15.80;100.00;100007.26;106564;1276;22549;-71
2023/04/25 07:40:07;;;;;;;21.80;11.10;;;;;;;15.91;100.00;100004.27;107011;1267;25451;-70
2023/04/25 07:42:35;;;;;;;30.80;12.50;;;;;;;15.99;100.00;100003.59;106987;1275;22538;-68
2023/04/25 07:45:06;;;;;;;30.10;10.40;;;;;;;16.11;100.00;100005.13;106884;1267;22524;-68
2023/04/25 07:47:34;;;;;;;20.90;7.90;;;;;;;16.25;100.00;100000.82;107205;1272;22540;-66
2023/04/25 07:50:03;;;;;;;22.20;8.90;;;;;;;16.35;100.00;99999.10;106895;1269;22581;-65
2023/04/25 07:52:31;;;;;;;17.90;7.60;;;;;;;16.38;100.00;99991.83;106805;1275;22575;-66
2023/04/25 07:55:16;;;;;;;17.80;7.10;;;;;;;16.42;100.00;99977.47;106898;1269;26591;-68
2023/04/25 07:57:57;;;;;;;19.30;6.60;;;;;;;16.50;100.00;99969.06;106758;1270;22546;-67
2023/04/25 08:00:28;;;;;;;16.90;6.40;;;;;;;16.52;100.00;99966.45;106724;1267;24203;-66
2023/04/25 08:03:02;;;;;;;18.70;6.50;;;;;;;16.46;100.00;99950.35;106825;1274;24256;-67
2023/04/25 08:05:30;;;;;;;20.20;6.30;;;;;;;16.48;100.00;99944.51;106821;1270;25323;-68
2023/04/25 08:08:02;;;;;;;24.90;7.20;;;;;;;16.47;100.00;99922.02;106630;1275;25428;-68
2023/04/25 08:10:30;;;;;;;14.90;6.40;;;;;;;16.44;100.00;99913.24;106994;1275;22527;-67
2023/04/25 08:12:58;;;;;;;14.80;6.10;;;;;;;16.59;100.00;99908.80;106688;1272;26860;-67
2023/04/25 08:15:26;;;;;;;15.60;5.60;;;;;;;16.79;100.00;99906.44;106855;1270;26656;-68
2023/04/25 08:17:54;;;;;;;12.60;5.20;;;;;;;17.01;100.00;99891.92;106673;1269;24462;-69
2023/04/25 08:20:22;;;;;;;10.40;4.70;;;;;;;17.22;100.00;99863.23;106932;1269;24371;-71
2023/04/25 08:22:50;;;;;;;14.50;5.60;;;;;;;17.42;100.00;99819.89;106877;1267;22531;-69
2023/04/25 08:25:40;;;;;;;13.00;7.30;;;;;;;17.60;100.00;99744.80;106693;1275;22524;-69
2023/04/25 08:28:10;;;;;;;19.80;7.00;;;;;;;17.74;100.00;99707.11;106922;1269;24320;-68
2023/04/25 08:30:38;;;;;;;12.10;4.70;;;;;;;17.92;100.00;99684.92;106846;1267;22533;-70
2023/04/25 08:33:07;;;;;;;18.70;4.90;;;;;;;18.16;100.00;99661.18;106859;1264;24228;-68
2023/04/25 08:35:57;;;;;;;11.30;4.90;;;;;;;18.56;100.00;99618.27;106867;1275;25369;-69
2023/04/25 08:38:25;;;;;;;10.10;4.60;;;;;;;18.98;100.00;99589.58;106876;1275;23545;-72
2023/04/25 08:40:52;;;;;;;12.60;5.80;;;;;;;19.40;100.00;99544.08;107085;1267;22520;-71
2023/04/25 08:43:21;;;;;;;19.70;8.00;;;;;;;19.78;100.00;99472.30;106826;1267;22668;-73
2023/04/25 08:45:48;;;;;;;18.60;8.10;;;;;;;20.04;100.00;99354.40;106826;1271;25650;-68
2023/04/25 08:48:36;;;;;;;11.60;5.30;;;;;;;20.31;100.00;99160.12;106890;1267;25351;-70
2023/04/25 08:51:04;;;;;;;6.40;4.00;;;;;;;20.49;100.00;99246.73;106911;1275;22533;-68
2023/04/25 08:53:32;;;;;;;7.90;3.90;;;;;;;20.63;100.00;99234.42;106941;1267;22646;-69
2023/04/25 08:56:02;;;;;;;9.30;4.00;;;;;;;20.70;100.00;99193.92;106877;1267;25351;-69
2023/04/25 08:58:34;;;;;;;13.00;4.50;;;;;;;20.70;100.00;99162.67;106598;1269;24266;-69
2023/04/25 09:01:02;;;;;;;10.30;3.90;;;;;;;20.73;100.00;99151.39;106836;1269;22520;-69
2023/04/25 09:03:32;;;;;;;9.50;3.80;;;;;;;20.71;100.00;99135.11;106774;1267;25246;-69
2023/04/25 09:06:00;;;;;;;6.50;3.80;;;;;;;20.61;100.00;99121.36;106955;1267;24293;-68
2023/04/25 09:08:27;;;;;;;12.10;4.30;;;;;;;20.53;100.00;99126.33;106417;1267;22522;-68
2023/04/25 09:10:55;;;;;;;14.50;4.70;;;;;;;20.48;100.00;99127.81;106605;1268;22521;-70
2023/04/25 09:13:26;;;;;;;9.30;4.20;;;;;;;20.25;100.00;99117.79;107111;1275;22534;-69
2023/04/25 09:16:17;;;;;;;8.10;3.60;;;;;;;19.87;100.00;99115.61;107254;1275;22527;-69
2023/04/25 09:19:40;;;;;;;9.00;4.10;;;;;;;19.32;100.00;99123.98;106569;1269;22512;-69
2023/04/25 09:22:16;;;;;;;11.60;4.00;;;;;;;18.87;100.00;99131.35;106711;1275;22503;-68
2023/04/25 09:24:45;;;;;;;13.80;4.20;;;;;;;18.63;100.00;99128.85;106628;1275;24225;-67
2023/04/25 09:27:20;;;;;;;9.10;4.20;;;;;;;18.46;100.00;99135.36;106859;1254;23859;-68
2023/04/25 09:29:48;;;;;;;6.40;4.10;;;;;;;18.21;100.00;99145.44;106702;1269;22523;-67
2023/04/25 09:32:18;;;;;;;6.70;4.00;;;;;;;17.93;100.00;99154.05;106702;1273;22513;-69
2023/04/25 09:34:51;;;;;;;6.70;3.90;;;;;;;17.67;100.00;99158.05;106838;1275;25249;-68
2023/04/25 09:37:29;;;;;;;10.90;4.70;;;;;;;17.41;100.00;99170.30;106955;1276;24372;-68
2023/04/25 09:40:05;;;;;;;12.20;4.80;;;;;;;17.08;100.00;99186.34;106906;1275;25466;-68
2023/04/25 09:42:35;;;;;;;16.70;5.40;;;;;;;16.85;100.00;99209.96;106813;1272;24028;-70
2023/04/25 09:45:03;;;;;;;12.80;5.60;;;;;;;16.63;100.00;99250.17;106888;1272;22642;-71
2023/04/25 09:47:37;;;;;;;19.10;6.50;;;;;;;16.37;100.00;99281.77;107037;1275;22533;-71
2023/04/25 09:50:15;;;;;;;60.90;26.60;;;;;;;16.08;100.00;99313.72;106791;1275;25249;-67
2023/04/25 09:52:45;;;;;;;19.40;8.50;;;;;;;15.66;100.00;99325.02;106818;1275;22685;-68
2023/04/25 09:55:17;;;;;;;16.30;8.00;;;;;;;15.36;100.00;99338.99;106813;1268;22572;-69
2023/04/25 09:57:46;;;;;;;16.70;7.30;;;;;;;15.21;100.00;99383.16;106765;1269;22523;-69
2023/04/25 10:00:14;;;;;;;19.90;8.20;;;;;;;15.16;100.00;99385.54;106890;1272;22615;-70
2023/04/25 10:02:42;;;;;;;14.80;5.90;;;;;;;15.26;100.00;99398.86;106963;1275;25356;-70
2023/04/25 10:05:12;;;;;;;16.20;7.30;;;;;;;15.45;100.00;99473.11;106851;1267;22562;-68
2023/04/25 10:07:40;;;;;;;20.30;7.70;;;;;;;15.65;100.00;99522.44;107057;1269;22516;-69
2023/04/25 10:10:12;;;;;;;20.20;7.20;;;;;;;15.91;100.00;99601.39;107143;1270;22881;-68
2023/04/25 10:12:40;;;;;;;19.50;7.30;;;;;;;16.11;100.00;99612.45;106756;1267;22528;-70
2023/04/25 10:15:08;;;;;;;20.90;7.60;;;;;;;16.30;100.00;99572.99;107242;1267;26505;-69
2023/04/25 10:17:35;;;;;;;20.70;7.50;;;;;;;16.53;100.00;99556.34;107198;1269;25318;-68
2023/04/25 10:20:07;;;;;;;22.60;8.70;;;;;;;16.85;100.00;99543.89;106587;1267;24284;-69
2023/04/25 10:22:37;;;;;;;19.90;9.20;;;;;;;17.31;100.00;99517.48;107242;1269;23146;-69
2023/04/25 10:25:05;;;;;;;16.70;7.00;;;;;;;17.91;100.00;99483.88;107246;1267;25631;-68
2023/04/25 10:27:32;;;;;;;15.20;6.10;;;;;;;18.57;100.00;99434.09;106827;1274;24292;-68
2023/04/25 10:30:12;;;;;;;12.20;5.50;;;;;;;19.18;100.00;99379.74;106967;1274;24238;-69
2023/04/25 10:32:40;;;;;;;13.10;5.20;;;;;;;19.73;100.00;99318.64;107020;1274;23857;-68
2023/04/25 10:35:17;;;;;;;14.60;5.20;;;;;;;20.06;100.00;99144.17;106736;1275;22521;-70
2023/04/25 10:37:58;;;;;;;15.50;5.30;;;;;;;20.25;100.00;99057.63;106859;1274;22520;-68
2023/04/25 10:40:26;;;;;;;14.00;5.80;;;;;;;20.38;100.00;98979.17;106892;1267;22801;-68
2023/04/25 10:42:54;;;;;;;17.40;6.70;;;;;;;20.56;100.00;98984.27;106849;1273;24291;-68
2023/04/25 10:45:22;;;;;;;16.20;6.20;;;;;;;20.77;100.00;98971.11;106848;1274;25376;-69
2023/04/25 10:47:49;;;;;;;13.80;5.60;;;;;;;20.90;100.00;98962.95;106772;1274;22636;-69
2023/04/25 10:50:17;;;;;;;13.40;5.70;;;;;;;21.01;100.00;98975.38;107177;1269;24394;-69
2023/04/25 10:52:44;;;;;;;20.40;6.60;;;;;;;21.05;100.00;98984.20;107075;1267;22544;-68
2023/04/25 10:55:12;;;;;;;16.50;6.40;;;;;;;20.99;100.00;98999.34;106767;1274;22987;-68
2023/04/25 10:57:41;;;;;;;12.60;6.20;;;;;;;20.85;100.00;99008.96;106666;1273;25824;-66
2023/04/25 11:00:16;;;;;;;14.80;6.10;;;;;;;20.82;100.00;99000.82;106675;1269;22543;-68
2023/04/25 11:02:57;;;;;;;18.20;6.90;;;;;;;20.95;100.00;99000.40;107135;1267;22537;-69
2023/04/25 11:05:35;;;;;;;21.20;8.10;;;;;;;20.91;100.00;99010.05;106964;1267;22560;-69
2023/04/25 11:08:30;;;;;;;18.70;7.20;;;;;;;20.76;100.00;99011.81;106833;1267;22530;-69
2023/04/25 11:10:57;;;;;;;18.50;8.00;;;;;;;20.59;100.00;99012.48;107059;1273;24282;-71
2023/04/25 11:13:30;;;;;;;23.50;7.90;;;;;;;20.34;100.00;99029.44;106778;1274;24325;-70
2023/04/25 11:15:57;;;;;;;18.40;7.80;;;;;;;20.14;100.00;99030.61;106974;1274;22665;-70
2023/04/25 11:18:41;;;;;;;16.90;8.70;;;;;;;19.96;100.00;99033.83;106981;1265;24228;-69
2023/04/25 11:21:09;;;;;;;19.50;8.20;;;;;;;19.85;100.00;99018.17;107020;1274;22635;-69
2023/04/25 11:23:37;;;;;;;19.50;8.20;;;;;;;19.77;100.00;99011.00;106966;1274;22526;-70
2023/04/25 11:26:04;;;;;;;17.40;7.40;;;;;;;19.69;100.00;99010.01;106976;1274;25601;-71
2023/04/25 11:28:32;;;;;;;19.80;7.70;;;;;;;19.52;100.00;99014.73;106970;1272;22520;-73
2023/04/25 11:30:59;;;;;;;21.90;8.50;;;;;;;19.29;100.00;99016.40;106924;1267;256800;-69